Airfield :
LOGIN :

Register | Disclaimer

   EN    FR    IT 

 










Legend :    VFR   Marginal VFR   IFR   Intensive IFR   Very Intensive IFR
Visi :
Ceiling :
>= 8 km
>= 3000ft
5 to 8 km
1000 to 3000 ft
1500m to 5 km
500 to 1000 ft
800 to 1500m
200 to 500 ft
< 800m
< 200 ft
Symbols :   Thunderstorms  Fog  Heavy snow  Heavy precipitations  Wind > 20 kt
SIGMETs :     Misc.  Thunderstorms  Icing  Turbulence  Mountain Waves  Volcanic Ashes







- Airport Elevation : 0 ft


ETEB - Ansbach Army Heliport

CURRENT METAR :
  • 181656Z AUTO 36005KT 9999 CLR 14/01 A3024 RMK AO2 SLP257 T01430012 $

EXPIRED METARs :
  • 181556Z AUTO 36005KT 9999 CLR 15/02 A3024 RMK AO2 SLP257 T01500015 $
  • 181456Z AUTO 05005KT 9999 FEW055 15/02 A3023 RMK AO2 SLP252 T01510019 57010 $

TAF TAF ETEB
Valid from the 18 at 13:00 until the 19 at 19:00 UTC


181306Z 1813/1919 02006KT 9999 SKC QNH3021INS
BECMG 1904/1905 01009KT 9999 SCT040 QNH3032INS
BECMG 1909/1910 VRB06KT 9999 FEW050 QNH3036INS TX18/1814Z TN03/1904Z
No reported NOTAMs for that airfield.



MET'MAP, your aeronautical weather chart ! - Copyright ORBIFLY December 2007 - Disclaimer

ORBIFLY MET'MAP TEAM :

Programming & Development : Alexandra Zaïnal
Concept & Development : Baudouin d'Aumeries
Co-Development & Prog : Marc-Olivier Méhu
Technical & hardware support : Manuel Goepfert

Contact : metmap@orbifly.com




SOURCES & CREDITS :

   NOAA